sensor_id;sensor_type;location;lat;lon;timestamp;pressure;altitude;pressure_sealevel;temperature;humidity
30182;BME280;16990;49.056;9.240;2022-07-23T00:00:19;98641.41;;;25.17;57.14
30182;BME280;16990;49.056;9.240;2022-07-23T00:02:47;98631.56;;;25.16;57.01
30182;BME280;16990;49.056;9.240;2022-07-23T00:05:14;98616.50;;;25.10;56.78
30182;BME280;16990;49.056;9.240;2022-07-23T00:07:41;98626.78;;;25.13;56.67
30182;BME280;16990;49.056;9.240;2022-07-23T00:10:08;98626.50;;;25.05;56.69
30182;BME280;16990;49.056;9.240;2022-07-23T00:12:35;98633.28;;;24.99;56.78
30182;BME280;16990;49.056;9.240;2022-07-23T00:15:03;98615.25;;;25.07;56.64
30182;BME280;16990;49.056;9.240;2022-07-23T00:17:30;98617.63;;;25.09;56.06
30182;BME280;16990;49.056;9.240;2022-07-23T00:19:58;98618.34;;;24.97;56.22
30182;BME280;16990;49.056;9.240;2022-07-23T00:22:25;98605.81;;;24.96;56.16
30182;BME280;16990;49.056;9.240;2022-07-23T00:24:53;98636.50;;;25.01;56.16
30182;BME280;16990;49.056;9.240;2022-07-23T00:27:20;98628.38;;;25.14;55.25
30182;BME280;16990;49.056;9.240;2022-07-23T00:29:46;98624.72;;;25.10;55.19
30182;BME280;16990;49.056;9.240;2022-07-23T00:32:13;98615.75;;;25.00;54.90
30182;BME280;16990;49.056;9.240;2022-07-23T00:34:39;98618.41;;;25.09;54.48
30182;BME280;16990;49.056;9.240;2022-07-23T00:37:07;98609.69;;;25.16;53.81
30182;BME280;16990;49.056;9.240;2022-07-23T00:39:34;98607.69;;;25.04;54.22
30182;BME280;16990;49.056;9.240;2022-07-23T00:42:01;98602.84;;;25.10;53.19
30182;BME280;16990;49.056;9.240;2022-07-23T00:44:27;98592.66;;;24.89;53.64
30182;BME280;16990;49.056;9.240;2022-07-23T00:46:56;98604.75;;;24.88;53.39
30182;BME280;16990;49.056;9.240;2022-07-23T00:49:26;98596.34;;;24.93;53.49
30182;BME280;16990;49.056;9.240;2022-07-23T00:51:54;98585.00;;;25.03;52.54
30182;BME280;16990;49.056;9.240;2022-07-23T00:54:25;98591.88;;;24.89;52.96
30182;BME280;16990;49.056;9.240;2022-07-23T00:56:52;98609.16;;;25.01;52.63
30182;BME280;16990;49.056;9.240;2022-07-23T00:59:20;98616.88;;;24.99;52.60
30182;BME280;16990;49.056;9.240;2022-07-23T01:01:46;98609.81;;;24.98;52.48
30182;BME280;16990;49.056;9.240;2022-07-23T01:04:14;98616.88;;;24.78;52.78
30182;BME280;16990;49.056;9.240;2022-07-23T01:06:43;98617.19;;;24.77;52.76
30182;BME280;16990;49.056;9.240;2022-07-23T01:09:10;98618.50;;;24.71;53.16
30182;BME280;16990;49.056;9.240;2022-07-23T01:11:38;98616.72;;;24.75;53.02
30182;BME280;16990;49.056;9.240;2022-07-23T01:14:10;98615.41;;;24.81;52.76
30182;BME280;16990;49.056;9.240;2022-07-23T01:16:37;98626.19;;;24.77;53.20
30182;BME280;16990;49.056;9.240;2022-07-23T01:19:04;98617.84;;;24.74;52.98
30182;BME280;16990;49.056;9.240;2022-07-23T01:21:34;98603.25;;;24.70;53.39
30182;BME280;16990;49.056;9.240;2022-07-23T01:24:03;98592.72;;;24.42;54.09
30182;BME280;16990;49.056;9.240;2022-07-23T01:26:30;98590.78;;;24.51;54.40
30182;BME280;16990;49.056;9.240;2022-07-23T01:28:57;98598.34;;;24.46;54.48
30182;BME280;16990;49.056;9.240;2022-07-23T01:31:24;98599.00;;;24.42;54.31
30182;BME280;16990;49.056;9.240;2022-07-23T01:33:51;98591.44;;;24.39;54.39
30182;BME280;16990;49.056;9.240;2022-07-23T01:36:17;98590.38;;;24.32;54.92
30182;BME280;16990;49.056;9.240;2022-07-23T01:38:44;98593.28;;;24.27;55.03
30182;BME280;16990;49.056;9.240;2022-07-23T01:41:12;98575.47;;;24.20;55.45
30182;BME280;16990;49.056;9.240;2022-07-23T01:43:39;98583.84;;;24.15;55.60
30182;BME280;16990;49.056;9.240;2022-07-23T01:49:22;98576.50;;;24.07;55.65
30182;BME280;16990;49.056;9.240;2022-07-23T01:51:49;98582.63;;;24.04;55.67
30182;BME280;16990;49.056;9.240;2022-07-23T01:54:30;98585.34;;;24.04;56.00
30182;BME280;16990;49.056;9.240;2022-07-23T01:56:59;98589.38;;;23.98;56.47
30182;BME280;16990;49.056;9.240;2022-07-23T01:59:26;98594.59;;;24.20;56.16
30182;BME280;16990;49.056;9.240;2022-07-23T02:01:54;98594.72;;;24.33;55.64
30182;BME280;16990;49.056;9.240;2022-07-23T02:04:21;98593.25;;;23.97;56.33
30182;BME280;16990;49.056;9.240;2022-07-23T02:06:49;98597.56;;;23.89;56.56
30182;BME280;16990;49.056;9.240;2022-07-23T02:09:16;98595.50;;;23.86;56.52
30182;BME280;16990;49.056;9.240;2022-07-23T02:11:43;98601.94;;;23.82;57.18
30182;BME280;16990;49.056;9.240;2022-07-23T02:14:11;98614.31;;;23.79;57.65
30182;BME280;16990;49.056;9.240;2022-07-23T02:16:38;98610.75;;;23.70;58.17
30182;BME280;16990;49.056;9.240;2022-07-23T02:19:05;98608.38;;;23.68;58.26
30182;BME280;16990;49.056;9.240;2022-07-23T02:21:32;98623.78;;;23.64;58.47
30182;BME280;16990;49.056;9.240;2022-07-23T02:23:58;98626.34;;;23.69;58.15
30182;BME280;16990;49.056;9.240;2022-07-23T02:26:25;98634.34;;;23.92;58.28
30182;BME280;16990;49.056;9.240;2022-07-23T02:28:51;98617.34;;;23.95;57.89
30182;BME280;16990;49.056;9.240;2022-07-23T02:31:20;98619.94;;;23.83;57.94
30182;BME280;16990;49.056;9.240;2022-07-23T02:33:47;98616.22;;;23.70;58.95
30182;BME280;16990;49.056;9.240;2022-07-23T02:36:13;98621.06;;;23.47;59.42
30182;BME280;16990;49.056;9.240;2022-07-23T02:38:40;98616.72;;;23.20;60.69
30182;BME280;16990;49.056;9.240;2022-07-23T02:41:07;98620.88;;;23.00;61.41
30182;BME280;16990;49.056;9.240;2022-07-23T02:43:33;98633.63;;;22.90;62.27
30182;BME280;16990;49.056;9.240;2022-07-23T02:46:00;98645.63;;;22.72;62.92
30182;BME280;16990;49.056;9.240;2022-07-23T02:48:28;98651.06;;;22.72;63.21
30182;BME280;16990;49.056;9.240;2022-07-23T02:50:55;98659.13;;;22.86;62.74
30182;BME280;16990;49.056;9.240;2022-07-23T02:53:22;98662.84;;;22.90;62.54
30182;BME280;16990;49.056;9.240;2022-07-23T02:55:49;98680.28;;;22.89;62.84
30182;BME280;16990;49.056;9.240;2022-07-23T02:58:15;98673.31;;;23.05;62.70
30182;BME280;16990;49.056;9.240;2022-07-23T03:00:42;98681.97;;;22.99;63.08
30182;BME280;16990;49.056;9.240;2022-07-23T03:03:09;98687.53;;;22.93;63.26
30182;BME280;16990;49.056;9.240;2022-07-23T03:05:37;98680.25;;;23.11;62.52
30182;BME280;16990;49.056;9.240;2022-07-23T03:08:04;98680.47;;;22.92;63.11
30182;BME280;16990;49.056;9.240;2022-07-23T03:10:30;98686.38;;;22.86;64.02
30182;BME280;16990;49.056;9.240;2022-07-23T03:12:57;98673.84;;;22.76;63.94
30182;BME280;16990;49.056;9.240;2022-07-23T03:15:23;98682.22;;;22.80;63.37
30182;BME280;16990;49.056;9.240;2022-07-23T03:17:50;98683.66;;;22.77;63.65
30182;BME280;16990;49.056;9.240;2022-07-23T03:20:16;98697.41;;;22.72;63.93
30182;BME280;16990;49.056;9.240;2022-07-23T03:22:45;98688.13;;;22.73;63.69
30182;BME280;16990;49.056;9.240;2022-07-23T03:25:11;98676.72;;;22.71;63.66
30182;BME280;16990;49.056;9.240;2022-07-23T03:27:38;98676.56;;;22.76;63.32
30182;BME280;16990;49.056;9.240;2022-07-23T03:30:06;98684.25;;;22.74;63.24
30182;BME280;16990;49.056;9.240;2022-07-23T03:32:33;98677.06;;;22.78;63.05
30182;BME280;16990;49.056;9.240;2022-07-23T03:35:00;98674.38;;;22.87;63.01
30182;BME280;16990;49.056;9.240;2022-07-23T03:37:26;98676.00;;;22.97;62.75
30182;BME280;16990;49.056;9.240;2022-07-23T03:39:54;98674.03;;;22.88;62.94
30182;BME280;16990;49.056;9.240;2022-07-23T03:42:21;98688.75;;;22.79;63.50
30182;BME280;16990;49.056;9.240;2022-07-23T03:44:48;98684.25;;;22.74;63.61
30182;BME280;16990;49.056;9.240;2022-07-23T03:47:14;98692.75;;;23.04;62.94
30182;BME280;16990;49.056;9.240;2022-07-23T03:49:42;98709.00;;;22.86;63.31
30182;BME280;16990;49.056;9.240;2022-07-23T03:52:09;98698.81;;;22.69;63.64
30182;BME280;16990;49.056;9.240;2022-07-23T03:54:35;98698.38;;;22.76;63.36
30182;BME280;16990;49.056;9.240;2022-07-23T03:57:03;98701.84;;;22.59;63.68
30182;BME280;16990;49.056;9.240;2022-07-23T03:59:30;98702.50;;;22.65;63.53
30182;BME280;16990;49.056;9.240;2022-07-23T04:01:57;98700.97;;;22.81;62.36
30182;BME280;16990;49.056;9.240;2022-07-23T04:04:23;98697.72;;;22.70;63.08
30182;BME280;16990;49.056;9.240;2022-07-23T04:06:50;98703.38;;;22.83;62.25
30182;BME280;16990;49.056;9.240;2022-07-23T04:09:16;98723.22;;;22.75;62.99
30182;BME280;16990;49.056;9.240;2022-07-23T04:11:43;98726.78;;;22.44;64.65
30182;BME280;16990;49.056;9.240;2022-07-23T04:14:11;98720.59;;;22.29;65.00
30182;BME280;16990;49.056;9.240;2022-07-23T04:16:38;98712.09;;;22.31;64.70
30182;BME280;16990;49.056;9.240;2022-07-23T04:19:04;98710.22;;;22.32;64.74
30182;BME280;16990;49.056;9.240;2022-07-23T04:21:31;98712.25;;;22.26;64.67
30182;BME280;16990;49.056;9.240;2022-07-23T04:23:58;98731.16;;;22.31;64.24
30182;BME280;16990;49.056;9.240;2022-07-23T04:26:24;98727.72;;;22.39;63.99
30182;BME280;16990;49.056;9.240;2022-07-23T04:28:51;98722.47;;;22.51;63.19
30182;BME280;16990;49.056;9.240;2022-07-23T04:31:19;98720.41;;;22.48;62.83
30182;BME280;16990;49.056;9.240;2022-07-23T04:33:45;98715.16;;;22.61;62.88
30182;BME280;16990;49.056;9.240;2022-07-23T04:36:12;98724.56;;;22.55;63.06
30182;BME280;16990;49.056;9.240;2022-07-23T04:38:38;98735.31;;;22.51;62.87
30182;BME280;16990;49.056;9.240;2022-07-23T04:41:05;98731.28;;;22.48;63.14
30182;BME280;16990;49.056;9.240;2022-07-23T04:43:32;98731.47;;;22.52;63.07
30182;BME280;16990;49.056;9.240;2022-07-23T04:45:58;98733.75;;;22.59;62.58
30182;BME280;16990;49.056;9.240;2022-07-23T04:48:26;98737.53;;;22.89;62.38
30182;BME280;16990;49.056;9.240;2022-07-23T04:50:53;98748.72;;;22.70;62.23
30182;BME280;16990;49.056;9.240;2022-07-23T04:53:20;98749.44;;;22.53;62.61
30182;BME280;16990;49.056;9.240;2022-07-23T04:55:46;98753.16;;;22.35;64.07
30182;BME280;16990;49.056;9.240;2022-07-23T04:58:13;98769.81;;;22.33;64.82
30182;BME280;16990;49.056;9.240;2022-07-23T05:00:39;98768.94;;;22.24;65.47
30182;BME280;16990;49.056;9.240;2022-07-23T05:03:06;98769.66;;;22.16;65.69
30182;BME280;16990;49.056;9.240;2022-07-23T05:05:34;98772.00;;;22.22;65.41
30182;BME280;16990;49.056;9.240;2022-07-23T05:08:01;98776.19;;;22.15;66.09
30182;BME280;16990;49.056;9.240;2022-07-23T05:10:28;98765.72;;;22.22;66.50
30182;BME280;16990;49.056;9.240;2022-07-23T05:12:55;98772.66;;;22.28;66.30
30182;BME280;16990;49.056;9.240;2022-07-23T05:15:21;98769.16;;;22.14;66.90
30182;BME280;16990;49.056;9.240;2022-07-23T05:17:48;98739.06;;;22.19;66.50
30182;BME280;16990;49.056;9.240;2022-07-23T05:20:15;98760.19;;;22.36;66.20
30182;BME280;16990;49.056;9.240;2022-07-23T05:22:43;98732.94;;;22.58;65.66
30182;BME280;16990;49.056;9.240;2022-07-23T05:25:09;98714.03;;;22.62;67.34
30182;BME280;16990;49.056;9.240;2022-07-23T05:27:36;98735.47;;;22.55;69.60
30182;BME280;16990;49.056;9.240;2022-07-23T05:30:03;98760.19;;;22.36;69.40
30182;BME280;16990;49.056;9.240;2022-07-23T05:32:31;98771.72;;;22.33;69.95
30182;BME280;16990;49.056;9.240;2022-07-23T05:34:57;98778.66;;;22.02;69.87
30182;BME280;16990;49.056;9.240;2022-07-23T05:37:24;98778.25;;;22.09;70.04
30182;BME280;16990;49.056;9.240;2022-07-23T05:39:52;98766.31;;;21.96;69.86
30182;BME280;16990;49.056;9.240;2022-07-23T05:42:19;98777.44;;;22.08;69.76
30182;BME280;16990;49.056;9.240;2022-07-23T05:44:46;98782.53;;;22.01;70.02
30182;BME280;16990;49.056;9.240;2022-07-23T05:47:12;98794.59;;;22.09;70.31
30182;BME280;16990;49.056;9.240;2022-07-23T05:49:39;98794.38;;;21.83;70.24
30182;BME280;16990;49.056;9.240;2022-07-23T05:52:06;98795.78;;;21.80;70.47
30182;BME280;16990;49.056;9.240;2022-07-23T05:54:34;98823.91;;;21.76;71.59
30182;BME280;16990;49.056;9.240;2022-07-23T05:57:03;98829.75;;;21.83;71.53
30182;BME280;16990;49.056;9.240;2022-07-23T05:59:30;98848.91;;;21.78;72.32
30182;BME280;16990;49.056;9.240;2022-07-23T06:01:57;98848.91;;;21.78;72.21
30182;BME280;16990;49.056;9.240;2022-07-23T06:04:23;98835.41;;;21.59;73.33
30182;BME280;16990;49.056;9.240;2022-07-23T06:06:50;98826.88;;;21.52;74.79
30182;BME280;16990;49.056;9.240;2022-07-23T06:09:17;98799.47;;;21.48;78.33
30182;BME280;16990;49.056;9.240;2022-07-23T06:11:44;98786.66;;;21.07;79.99
30182;BME280;16990;49.056;9.240;2022-07-23T06:14:12;98806.50;;;21.08;82.94
30182;BME280;16990;49.056;9.240;2022-07-23T06:16:39;98810.13;;;21.03;85.16
30182;BME280;16990;49.056;9.240;2022-07-23T06:19:06;98814.44;;;20.90;86.48
30182;BME280;16990;49.056;9.240;2022-07-23T06:21:32;98792.78;;;20.85;87.26
30182;BME280;16990;49.056;9.240;2022-07-23T06:23:59;98810.75;;;20.67;87.79
30182;BME280;16990;49.056;9.240;2022-07-23T06:26:26;98769.66;;;20.55;87.52
30182;BME280;16990;49.056;9.240;2022-07-23T06:28:53;98782.59;;;20.77;87.20
30182;BME280;16990;49.056;9.240;2022-07-23T06:31:21;98743.94;;;20.66;90.39
30182;BME280;16990;49.056;9.240;2022-07-23T06:33:47;98775.56;;;20.90;93.18
30182;BME280;16990;49.056;9.240;2022-07-23T06:36:15;98779.00;;;20.95;96.40
30182;BME280;16990;49.056;9.240;2022-07-23T06:38:41;98763.69;;;20.99;96.43
30182;BME280;16990;49.056;9.240;2022-07-23T06:41:08;98767.53;;;21.12;96.35
30182;BME280;16990;49.056;9.240;2022-07-23T06:43:34;98795.25;;;21.42;96.30
30182;BME280;16990;49.056;9.240;2022-07-23T06:46:01;98773.19;;;21.43;95.50
30182;BME280;16990;49.056;9.240;2022-07-23T06:48:29;98770.34;;;21.35;93.68
30182;BME280;16990;49.056;9.240;2022-07-23T06:50:56;98794.19;;;21.38;93.24
30182;BME280;16990;49.056;9.240;2022-07-23T06:53:22;98829.06;;;21.50;92.72
30182;BME280;16990;49.056;9.240;2022-07-23T06:55:49;98840.78;;;21.50;91.65
30182;BME280;16990;49.056;9.240;2022-07-23T06:58:15;98841.25;;;21.24;93.72
30182;BME280;16990;49.056;9.240;2022-07-23T07:00:43;98869.28;;;20.92;92.39
30182;BME280;16990;49.056;9.240;2022-07-23T07:03:10;98883.50;;;21.03;94.52
30182;BME280;16990;49.056;9.240;2022-07-23T07:05:38;98895.03;;;20.81;97.18
30182;BME280;16990;49.056;9.240;2022-07-23T07:08:05;98899.28;;;20.87;96.29
30182;BME280;16990;49.056;9.240;2022-07-23T07:10:32;98881.47;;;20.95;95.48
30182;BME280;16990;49.056;9.240;2022-07-23T07:12:59;98892.28;;;21.00;96.24
30182;BME280;16990;49.056;9.240;2022-07-23T07:15:26;98889.47;;;20.72;99.98
30182;BME280;16990;49.056;9.240;2022-07-23T07:17:52;98909.66;;;20.66;96.72
30182;BME280;16990;49.056;9.240;2022-07-23T07:20:19;98919.91;;;20.88;99.59
30182;BME280;16990;49.056;9.240;2022-07-23T07:22:47;98887.47;;;20.78;100.00
30182;BME280;16990;49.056;9.240;2022-07-23T07:25:14;98891.34;;;20.91;100.00
30182;BME280;16990;49.056;9.240;2022-07-23T07:27:41;98861.88;;;20.65;100.00
30182;BME280;16990;49.056;9.240;2022-07-23T07:30:10;98853.44;;;20.80;100.00
30182;BME280;16990;49.056;9.240;2022-07-23T07:32:37;98858.16;;;20.75;100.00
30182;BME280;16990;49.056;9.240;2022-07-23T07:35:04;98863.75;;;20.84;100.00
30182;BME280;16990;49.056;9.240;2022-07-23T07:37:31;98876.22;;;20.85;100.00
30182;BME280;16990;49.056;9.240;2022-07-23T07:39:59;98863.94;;;20.87;100.00
30182;BME280;16990;49.056;9.240;2022-07-23T07:42:26;98856.94;;;21.00;100.00
30182;BME280;16990;49.056;9.240;2022-07-23T07:44:53;98851.41;;;21.05;100.00
30182;BME280;16990;49.056;9.240;2022-07-23T07:47:20;98855.53;;;21.16;100.00
30182;BME280;16990;49.056;9.240;2022-07-23T07:49:46;98847.44;;;21.44;100.00
30182;BME280;16990;49.056;9.240;2022-07-23T07:52:13;98838.06;;;21.50;100.00
30182;BME280;16990;49.056;9.240;2022-07-23T07:54:39;98822.44;;;21.42;100.00
30182;BME280;16990;49.056;9.240;2022-07-23T07:57:08;98848.50;;;21.71;100.00
30182;BME280;16990;49.056;9.240;2022-07-23T07:59:34;98859.56;;;21.88;98.91
30182;BME280;16990;49.056;9.240;2022-07-23T08:02:02;98866.81;;;21.93;97.78
30182;BME280;16990;49.056;9.240;2022-07-23T08:04:28;98865.22;;;21.92;95.82
30182;BME280;16990;49.056;9.240;2022-07-23T08:06:55;98862.91;;;21.85;95.95
30182;BME280;16990;49.056;9.240;2022-07-23T08:09:21;98857.47;;;21.85;95.39
30182;BME280;16990;49.056;9.240;2022-07-23T08:11:48;98865.53;;;21.90;98.44
30182;BME280;16990;49.056;9.240;2022-07-23T08:14:18;98862.00;;;21.90;97.39
30182;BME280;16990;49.056;9.240;2022-07-23T08:16:45;98864.03;;;21.84;96.75
30182;BME280;16990;49.056;9.240;2022-07-23T08:19:11;98881.72;;;22.09;96.31
30182;BME280;16990;49.056;9.240;2022-07-23T08:21:38;98879.00;;;21.95;96.83
30182;BME280;16990;49.056;9.240;2022-07-23T08:24:05;98889.41;;;21.93;95.12
30182;BME280;16990;49.056;9.240;2022-07-23T08:26:32;98898.84;;;22.09;93.08
30182;BME280;16990;49.056;9.240;2022-07-23T08:28:58;98892.44;;;21.78;94.63
30182;BME280;16990;49.056;9.240;2022-07-23T08:31:26;98905.03;;;21.74;94.30
30182;BME280;16990;49.056;9.240;2022-07-23T08:33:53;98872.31;;;21.51;97.00
30182;BME280;16990;49.056;9.240;2022-07-23T08:36:20;98899.72;;;21.69;99.15
30182;BME280;16990;49.056;9.240;2022-07-23T08:38:46;98906.28;;;21.67;98.26
30182;BME280;16990;49.056;9.240;2022-07-23T08:41:14;98904.97;;;21.65;99.68
30182;BME280;16990;49.056;9.240;2022-07-23T08:43:42;98896.19;;;21.54;100.00
30182;BME280;16990;49.056;9.240;2022-07-23T08:46:09;98906.88;;;21.64;100.00
30182;BME280;16990;49.056;9.240;2022-07-23T08:48:37;98899.81;;;21.63;100.00
30182;BME280;16990;49.056;9.240;2022-07-23T08:51:05;98903.34;;;21.78;100.00
30182;BME280;16990;49.056;9.240;2022-07-23T08:53:33;98910.31;;;21.84;100.00
30182;BME280;16990;49.056;9.240;2022-07-23T08:56:02;98904.94;;;21.93;100.00
30182;BME280;16990;49.056;9.240;2022-07-23T08:58:30;98901.31;;;21.97;99.74
30182;BME280;16990;49.056;9.240;2022-07-23T09:00:57;98907.63;;;22.06;100.00
30182;BME280;16990;49.056;9.240;2022-07-23T09:03:25;98904.13;;;22.06;100.00
30182;BME280;16990;49.056;9.240;2022-07-23T09:05:54;98896.22;;;22.18;100.00
30182;BME280;16990;49.056;9.240;2022-07-23T09:08:23;98914.50;;;22.18;100.00
30182;BME280;16990;49.056;9.240;2022-07-23T09:10:52;98922.06;;;22.21;100.00
30182;BME280;16990;49.056;9.240;2022-07-23T09:13:32;98913.03;;;21.84;100.00
30182;BME280;16990;49.056;9.240;2022-07-23T09:16:01;98904.97;;;21.79;100.00
30182;BME280;16990;49.056;9.240;2022-07-23T09:18:33;98905.56;;;21.90;100.00
30182;BME280;16990;49.056;9.240;2022-07-23T09:21:19;98909.16;;;22.13;100.00
30182;BME280;16990;49.056;9.240;2022-07-23T09:23:49;98908.06;;;22.50;100.00
30182;BME280;16990;49.056;9.240;2022-07-23T09:26:34;98915.19;;;22.60;100.00
30182;BME280;16990;49.056;9.240;2022-07-23T09:29:04;98903.69;;;22.63;100.00
30182;BME280;16990;49.056;9.240;2022-07-23T09:31:33;98907.00;;;22.60;100.00
30182;BME280;16990;49.056;9.240;2022-07-23T09:34:12;98913.34;;;22.91;99.56
30182;BME280;16990;49.056;9.240;2022-07-23T09:36:41;98887.72;;;22.70;99.22
30182;BME280;16990;49.056;9.240;2022-07-23T09:39:08;98902.84;;;22.99;91.71
30182;BME280;16990;49.056;9.240;2022-07-23T09:41:39;98911.69;;;23.04;86.41
30182;BME280;16990;49.056;9.240;2022-07-23T09:44:14;98916.81;;;22.83;90.60
30182;BME280;16990;49.056;9.240;2022-07-23T09:46:42;98924.75;;;22.71;94.20
30182;BME280;16990;49.056;9.240;2022-07-23T09:49:13;98924.13;;;22.74;93.45
30182;BME280;16990;49.056;9.240;2022-07-23T09:51:47;98920.53;;;22.87;88.95
30182;BME280;16990;49.056;9.240;2022-07-23T09:54:25;98915.88;;;22.88;86.80
30182;BME280;16990;49.056;9.240;2022-07-23T09:56:53;98909.47;;;23.06;81.73
30182;BME280;16990;49.056;9.240;2022-07-23T09:59:26;98919.00;;;23.49;85.53
30182;BME280;16990;49.056;9.240;2022-07-23T10:01:54;98916.13;;;23.54;80.30
30182;BME280;16990;49.056;9.240;2022-07-23T10:04:22;98910.59;;;23.76;84.71
30182;BME280;16990;49.056;9.240;2022-07-23T10:06:53;98912.09;;;24.00;82.25
30182;BME280;16990;49.056;9.240;2022-07-23T10:09:23;98905.34;;;23.97;80.77
30182;BME280;16990;49.056;9.240;2022-07-23T10:11:50;98913.63;;;23.75;79.53
30182;BME280;16990;49.056;9.240;2022-07-23T10:14:17;98918.34;;;23.92;77.35
30182;BME280;16990;49.056;9.240;2022-07-23T10:16:45;98915.81;;;24.04;77.24
30182;BME280;16990;49.056;9.240;2022-07-23T10:19:11;98897.03;;;24.29;77.68
30182;BME280;16990;49.056;9.240;2022-07-23T10:21:40;98907.38;;;24.67;77.08
30182;BME280;16990;49.056;9.240;2022-07-23T10:24:17;98902.69;;;24.76;72.34
30182;BME280;16990;49.056;9.240;2022-07-23T10:26:53;98902.34;;;24.77;74.80
30182;BME280;16990;49.056;9.240;2022-07-23T10:29:36;98888.63;;;25.12;71.77
30182;BME280;16990;49.056;9.240;2022-07-23T10:32:17;98904.81;;;25.43;68.37
30182;BME280;16990;49.056;9.240;2022-07-23T10:34:52;98898.38;;;25.39;68.37
30182;BME280;16990;49.056;9.240;2022-07-23T10:37:23;98900.50;;;25.34;69.11
30182;BME280;16990;49.056;9.240;2022-07-23T10:40:13;98912.78;;;25.19;65.16
30182;BME280;16990;49.056;9.240;2022-07-23T10:42:42;98903.72;;;25.36;64.21
30182;BME280;16990;49.056;9.240;2022-07-23T10:45:26;98914.22;;;25.63;60.17
30182;BME280;16990;49.056;9.240;2022-07-23T10:47:53;98906.88;;;25.76;59.86
30182;BME280;16990;49.056;9.240;2022-07-23T10:50:22;98910.53;;;25.59;60.54
30182;BME280;16990;49.056;9.240;2022-07-23T10:53:14;98908.03;;;25.37;60.61
30182;BME280;16990;49.056;9.240;2022-07-23T10:55:50;98910.91;;;25.40;62.98
30182;BME280;16990;49.056;9.240;2022-07-23T10:58:23;98902.56;;;25.45;59.97
30182;BME280;16990;49.056;9.240;2022-07-23T11:01:34;98906.56;;;25.78;60.01
30182;BME280;16990;49.056;9.240;2022-07-23T11:04:02;98903.25;;;25.63;57.09
30182;BME280;16990;49.056;9.240;2022-07-23T11:07:06;98906.25;;;25.79;61.38
30182;BME280;16990;49.056;9.240;2022-07-23T11:09:39;98902.84;;;26.12;57.94
30182;BME280;16990;49.056;9.240;2022-07-23T11:12:37;98901.44;;;26.06;57.73
30182;BME280;16990;49.056;9.240;2022-07-23T11:15:06;98905.22;;;25.93;59.83
30182;BME280;16990;49.056;9.240;2022-07-23T11:17:35;98904.94;;;26.15;60.25
30182;BME280;16990;49.056;9.240;2022-07-23T11:20:20;98901.56;;;25.80;58.77
30182;BME280;16990;49.056;9.240;2022-07-23T11:22:50;98903.72;;;26.04;58.13
30182;BME280;16990;49.056;9.240;2022-07-23T11:25:33;98900.31;;;25.77;59.32
30182;BME280;16990;49.056;9.240;2022-07-23T11:28:14;98895.50;;;26.04;57.64
30182;BME280;16990;49.056;9.240;2022-07-23T11:30:43;98878.00;;;26.17;57.13
30182;BME280;16990;49.056;9.240;2022-07-23T11:33:18;98885.47;;;26.50;56.88
30182;BME280;16990;49.056;9.240;2022-07-23T11:35:46;98895.25;;;26.60;58.91
30182;BME280;16990;49.056;9.240;2022-07-23T11:38:17;98886.78;;;26.86;56.67
30182;BME280;16990;49.056;9.240;2022-07-23T11:40:45;98889.38;;;27.15;56.10
30182;BME280;16990;49.056;9.240;2022-07-23T11:43:14;98880.28;;;26.90;56.28
30182;BME280;16990;49.056;9.240;2022-07-23T11:45:42;98886.19;;;27.13;56.49
30182;BME280;16990;49.056;9.240;2022-07-23T11:48:15;98879.16;;;27.37;56.94
30182;BME280;16990;49.056;9.240;2022-07-23T11:50:42;98886.69;;;27.28;54.67
30182;BME280;16990;49.056;9.240;2022-07-23T11:53:09;98872.19;;;27.52;55.30
30182;BME280;16990;49.056;9.240;2022-07-23T11:55:36;98881.44;;;27.84;53.46
30182;BME280;16990;49.056;9.240;2022-07-23T11:58:03;98871.69;;;27.74;54.03
30182;BME280;16990;49.056;9.240;2022-07-23T12:00:31;98866.78;;;27.68;52.71
30182;BME280;16990;49.056;9.240;2022-07-23T12:03:00;98864.25;;;27.26;53.66
30182;BME280;16990;49.056;9.240;2022-07-23T12:05:28;98866.69;;;27.40;52.85
30182;BME280;16990;49.056;9.240;2022-07-23T12:07:56;98868.16;;;27.49;51.91
30182;BME280;16990;49.056;9.240;2022-07-23T12:10:25;98853.97;;;27.60;52.95
30182;BME280;16990;49.056;9.240;2022-07-23T12:12:53;98862.09;;;27.68;53.83
30182;BME280;16990;49.056;9.240;2022-07-23T12:15:22;98863.69;;;27.82;52.69
30182;BME280;16990;49.056;9.240;2022-07-23T12:17:51;98864.50;;;27.70;51.67
30182;BME280;16990;49.056;9.240;2022-07-23T12:20:21;98855.56;;;27.61;52.68
30182;BME280;16990;49.056;9.240;2022-07-23T12:22:49;98862.06;;;27.19;53.58
30182;BME280;16990;49.056;9.240;2022-07-23T12:25:18;98863.03;;;27.02;53.85
30182;BME280;16990;49.056;9.240;2022-07-23T12:27:45;98854.34;;;27.00;53.28
30182;BME280;16990;49.056;9.240;2022-07-23T12:30:22;98855.44;;;26.75;53.32
30182;BME280;16990;49.056;9.240;2022-07-23T12:32:52;98860.00;;;26.70;52.49
30182;BME280;16990;49.056;9.240;2022-07-23T12:35:19;98858.53;;;26.85;51.28
30182;BME280;16990;49.056;9.240;2022-07-23T12:37:48;98858.47;;;26.94;51.70
30182;BME280;16990;49.056;9.240;2022-07-23T12:40:36;98855.81;;;27.31;50.86
30182;BME280;16990;49.056;9.240;2022-07-23T12:43:05;98859.81;;;27.46;50.50
30182;BME280;16990;49.056;9.240;2022-07-23T12:45:44;98867.47;;;27.65;50.11
30182;BME280;16990;49.056;9.240;2022-07-23T12:48:24;98864.97;;;27.47;50.56
30182;BME280;16990;49.056;9.240;2022-07-23T12:50:53;98858.53;;;27.43;49.76
30182;BME280;16990;49.056;9.240;2022-07-23T12:53:22;98857.84;;;27.34;49.83
30182;BME280;16990;49.056;9.240;2022-07-23T12:55:49;98864.97;;;27.60;49.23
30182;BME280;16990;49.056;9.240;2022-07-23T12:58:17;98864.41;;;27.66;49.04
30182;BME280;16990;49.056;9.240;2022-07-23T13:01:01;98879.16;;;27.62;49.04
30182;BME280;16990;49.056;9.240;2022-07-23T13:03:32;98876.88;;;27.88;48.04
30182;BME280;16990;49.056;9.240;2022-07-23T13:06:00;98864.94;;;28.09;47.77
30182;BME280;16990;49.056;9.240;2022-07-23T13:08:29;98860.16;;;27.93;48.39
30182;BME280;16990;49.056;9.240;2022-07-23T13:10:56;98860.34;;;28.13;47.73